sensor_id;sensor_type;location;lat;lon;timestamp;temperature;humidity
77305;DHT22;66364;52.622;7.746;2023-06-04T00:01:11;11.30;69.20
77305;DHT22;66364;52.622;7.746;2023-06-04T00:03:13;11.30;70.00
77305;DHT22;66364;52.622;7.746;2023-06-04T00:05:14;11.10;70.80
77305;DHT22;66364;52.622;7.746;2023-06-04T00:07:15;10.90;71.10
77305;DHT22;66364;52.622;7.746;2023-06-04T00:09:17;11.10;71.60
77305;DHT22;66364;52.622;7.746;2023-06-04T00:11:18;11.20;71.80
77305;DHT22;66364;52.622;7.746;2023-06-04T00:13:19;11.30;70.80
77305;DHT22;66364;52.622;7.746;2023-06-04T00:15:20;11.20;70.60
77305;DHT22;66364;52.622;7.746;2023-06-04T00:17:22;11.30;70.90
77305;DHT22;66364;52.622;7.746;2023-06-04T00:19:23;11.20;70.60
77305;DHT22;66364;52.622;7.746;2023-06-04T00:21:24;11.20;71.00
77305;DHT22;66364;52.622;7.746;2023-06-04T00:23:25;11.10;71.00
77305;DHT22;66364;52.622;7.746;2023-06-04T00:25:25;11.00;72.00
77305;DHT22;66364;52.622;7.746;2023-06-04T00:27:27;10.90;72.50
77305;DHT22;66364;52.622;7.746;2023-06-04T00:29:29;10.80;73.00
77305;DHT22;66364;52.622;7.746;2023-06-04T00:31:30;10.80;74.30
77305;DHT22;66364;52.622;7.746;2023-06-04T00:33:32;10.80;75.50
77305;DHT22;66364;52.622;7.746;2023-06-04T00:35:33;10.80;74.50
77305;DHT22;66364;52.622;7.746;2023-06-04T00:37:34;10.90;74.00
77305;DHT22;66364;52.622;7.746;2023-06-04T00:39:35;10.80;73.80
77305;DHT22;66364;52.622;7.746;2023-06-04T00:41:36;10.90;74.00
77305;DHT22;66364;52.622;7.746;2023-06-04T00:43:37;10.90;74.40
77305;DHT22;66364;52.622;7.746;2023-06-04T00:45:38;10.80;74.70
77305;DHT22;66364;52.622;7.746;2023-06-04T00:47:39;10.80;75.10
77305;DHT22;66364;52.622;7.746;2023-06-04T00:49:46;10.70;74.80
77305;DHT22;66364;52.622;7.746;2023-06-04T00:51:48;10.70;75.00
77305;DHT22;66364;52.622;7.746;2023-06-04T00:53:50;10.70;74.70
77305;DHT22;66364;52.622;7.746;2023-06-04T00:55:51;10.70;75.10
77305;DHT22;66364;52.622;7.746;2023-06-04T00:57:52;10.90;76.00
77305;DHT22;66364;52.622;7.746;2023-06-04T00:59:53;10.80;76.40
77305;DHT22;66364;52.622;7.746;2023-06-04T01:01:58;10.90;75.70
77305;DHT22;66364;52.622;7.746;2023-06-04T01:04:00;10.70;76.60
77305;DHT22;66364;52.622;7.746;2023-06-04T01:08:11;10.50;76.00
77305;DHT22;66364;52.622;7.746;2023-06-04T01:10:13;10.50;75.90
77305;DHT22;66364;52.622;7.746;2023-06-04T01:12:14;10.50;76.10
77305;DHT22;66364;52.622;7.746;2023-06-04T01:14:16;10.60;76.80
77305;DHT22;66364;52.622;7.746;2023-06-04T01:16:17;10.50;76.60
77305;DHT22;66364;52.622;7.746;2023-06-04T01:18:26;10.40;76.40
77305;DHT22;66364;52.622;7.746;2023-06-04T01:24:56;10.10;77.60
77305;DHT22;66364;52.622;7.746;2023-06-04T01:26:58;10.40;77.40
77305;DHT22;66364;52.622;7.746;2023-06-04T01:29:00;10.30;77.90
77305;DHT22;66364;52.622;7.746;2023-06-04T01:31:03;10.30;78.10
77305;DHT22;66364;52.622;7.746;2023-06-04T01:33:04;10.30;79.10
77305;DHT22;66364;52.622;7.746;2023-06-04T01:35:10;10.50;79.00
77305;DHT22;66364;52.622;7.746;2023-06-04T01:37:12;10.20;79.00
77305;DHT22;66364;52.622;7.746;2023-06-04T01:39:13;10.20;79.00
77305;DHT22;66364;52.622;7.746;2023-06-04T01:41:14;10.20;79.50
77305;DHT22;66364;52.622;7.746;2023-06-04T01:43:15;10.50;79.80
77305;DHT22;66364;52.622;7.746;2023-06-04T01:45:16;10.50;79.20
77305;DHT22;66364;52.622;7.746;2023-06-04T01:47:17;10.20;79.20
77305;DHT22;66364;52.622;7.746;2023-06-04T01:49:18;10.20;79.90
77305;DHT22;66364;52.622;7.746;2023-06-04T01:51:19;10.10;79.90
77305;DHT22;66364;52.622;7.746;2023-06-04T01:53:21;10.00;80.20
77305;DHT22;66364;52.622;7.746;2023-06-04T01:55:24;10.10;81.00
77305;DHT22;66364;52.622;7.746;2023-06-04T01:57:25;10.00;80.70
77305;DHT22;66364;52.622;7.746;2023-06-04T01:59:26;10.00;81.10
77305;DHT22;66364;52.622;7.746;2023-06-04T02:01:27;10.00;81.20
77305;DHT22;66364;52.622;7.746;2023-06-04T02:03:29;10.20;81.20
77305;DHT22;66364;52.622;7.746;2023-06-04T02:05:31;10.10;80.70
77305;DHT22;66364;52.622;7.746;2023-06-04T02:07:31;9.90;81.80
77305;DHT22;66364;52.622;7.746;2023-06-04T02:09:32;9.90;82.10
77305;DHT22;66364;52.622;7.746;2023-06-04T02:11:33;10.10;81.90
77305;DHT22;66364;52.622;7.746;2023-06-04T02:13:34;10.00;83.50
77305;DHT22;66364;52.622;7.746;2023-06-04T02:15:35;9.90;86.80
77305;DHT22;66364;52.622;7.746;2023-06-04T02:17:39;10.10;87.90
77305;DHT22;66364;52.622;7.746;2023-06-04T02:19:40;9.90;88.60
77305;DHT22;66364;52.622;7.746;2023-06-04T02:21:42;10.00;87.20
77305;DHT22;66364;52.622;7.746;2023-06-04T02:23:43;10.10;87.50
77305;DHT22;66364;52.622;7.746;2023-06-04T02:25:45;10.00;87.00
77305;DHT22;66364;52.622;7.746;2023-06-04T02:27:46;9.80;87.70
77305;DHT22;66364;52.622;7.746;2023-06-04T02:29:47;9.80;87.70
77305;DHT22;66364;52.622;7.746;2023-06-04T02:31:48;10.00;87.20
77305;DHT22;66364;52.622;7.746;2023-06-04T02:33:50;9.80;88.20
77305;DHT22;66364;52.622;7.746;2023-06-04T02:35:51;9.60;88.20
77305;DHT22;66364;52.622;7.746;2023-06-04T02:37:52;9.80;89.30
77305;DHT22;66364;52.622;7.746;2023-06-04T02:39:53;9.60;88.30
77305;DHT22;66364;52.622;7.746;2023-06-04T02:41:54;9.80;89.70
77305;DHT22;66364;52.622;7.746;2023-06-04T02:43:54;9.70;90.30
77305;DHT22;66364;52.622;7.746;2023-06-04T02:45:55;9.60;91.80
77305;DHT22;66364;52.622;7.746;2023-06-04T02:47:57;9.70;91.80
77305;DHT22;66364;52.622;7.746;2023-06-04T02:49:58;9.60;92.00
77305;DHT22;66364;52.622;7.746;2023-06-04T02:51:59;9.60;92.60
77305;DHT22;66364;52.622;7.746;2023-06-04T02:54:00;9.60;92.70
77305;DHT22;66364;52.622;7.746;2023-06-04T02:56:01;9.60;92.60
77305;DHT22;66364;52.622;7.746;2023-06-04T02:58:03;9.60;92.70
77305;DHT22;66364;52.622;7.746;2023-06-04T03:00:04;9.60;93.40
77305;DHT22;66364;52.622;7.746;2023-06-04T03:02:05;9.80;93.70
77305;DHT22;66364;52.622;7.746;2023-06-04T03:04:07;9.60;93.70
77305;DHT22;66364;52.622;7.746;2023-06-04T03:06:08;9.60;93.70
77305;DHT22;66364;52.622;7.746;2023-06-04T03:08:09;9.50;93.50
77305;DHT22;66364;52.622;7.746;2023-06-04T03:10:12;9.50;93.60
77305;DHT22;66364;52.622;7.746;2023-06-04T03:12:13;9.50;93.70
77305;DHT22;66364;52.622;7.746;2023-06-04T03:14:14;9.50;93.80
77305;DHT22;66364;52.622;7.746;2023-06-04T03:16:16;9.30;94.00
77305;DHT22;66364;52.622;7.746;2023-06-04T03:18:17;9.40;94.40
77305;DHT22;66364;52.622;7.746;2023-06-04T03:20:18;9.20;95.60
77305;DHT22;66364;52.622;7.746;2023-06-04T03:22:20;9.20;95.80
77305;DHT22;66364;52.622;7.746;2023-06-04T03:24:21;9.70;97.00
77305;DHT22;66364;52.622;7.746;2023-06-04T03:26:29;9.20;97.50
77305;DHT22;66364;52.622;7.746;2023-06-04T03:28:32;9.50;98.00
77305;DHT22;66364;52.622;7.746;2023-06-04T03:30:34;9.40;99.10
77305;DHT22;66364;52.622;7.746;2023-06-04T03:32:35;9.50;99.90
77305;DHT22;66364;52.622;7.746;2023-06-04T03:34:36;9.40;99.90
77305;DHT22;66364;52.622;7.746;2023-06-04T03:36:37;9.10;99.90
77305;DHT22;66364;52.622;7.746;2023-06-04T03:38:39;9.20;99.90
77305;DHT22;66364;52.622;7.746;2023-06-04T03:40:41;9.20;99.90
77305;DHT22;66364;52.622;7.746;2023-06-04T03:42:43;9.20;99.90
77305;DHT22;66364;52.622;7.746;2023-06-04T03:44:44;9.40;99.90
77305;DHT22;66364;52.622;7.746;2023-06-04T03:46:45;9.40;99.90
77305;DHT22;66364;52.622;7.746;2023-06-04T03:48:46;9.20;99.90
77305;DHT22;66364;52.622;7.746;2023-06-04T03:50:47;9.40;99.90
77305;DHT22;66364;52.622;7.746;2023-06-04T03:52:48;9.70;99.90
77305;DHT22;66364;52.622;7.746;2023-06-04T03:54:50;9.50;99.90
77305;DHT22;66364;52.622;7.746;2023-06-04T03:56:52;9.60;99.90
77305;DHT22;66364;52.622;7.746;2023-06-04T03:58:53;9.50;99.90
77305;DHT22;66364;52.622;7.746;2023-06-04T04:00:54;9.60;99.90
77305;DHT22;66364;52.622;7.746;2023-06-04T04:02:55;9.80;99.90
77305;DHT22;66364;52.622;7.746;2023-06-04T04:04:56;9.90;99.90
77305;DHT22;66364;52.622;7.746;2023-06-04T04:06:59;9.90;99.90
77305;DHT22;66364;52.622;7.746;2023-06-04T04:09:02;9.50;99.90
77305;DHT22;66364;52.622;7.746;2023-06-04T04:11:04;9.80;99.90
77305;DHT22;66364;52.622;7.746;2023-06-04T04:13:05;9.80;99.90
77305;DHT22;66364;52.622;7.746;2023-06-04T04:15:08;9.80;99.90
77305;DHT22;66364;52.622;7.746;2023-06-04T04:17:09;9.80;99.90
77305;DHT22;66364;52.622;7.746;2023-06-04T04:19:11;9.80;99.90
77305;DHT22;66364;52.622;7.746;2023-06-04T04:21:12;9.90;99.90
77305;DHT22;66364;52.622;7.746;2023-06-04T04:23:13;9.80;99.90
77305;DHT22;66364;52.622;7.746;2023-06-04T04:25:15;10.10;99.90
77305;DHT22;66364;52.622;7.746;2023-06-04T04:27:16;9.90;99.90
77305;DHT22;66364;52.622;7.746;2023-06-04T04:29:17;10.00;99.90
77305;DHT22;66364;52.622;7.746;2023-06-04T04:31:18;10.00;99.90
77305;DHT22;66364;52.622;7.746;2023-06-04T04:33:26;10.00;99.90
77305;DHT22;66364;52.622;7.746;2023-06-04T04:35:27;10.40;99.90
77305;DHT22;66364;52.622;7.746;2023-06-04T04:37:28;10.00;99.90
77305;DHT22;66364;52.622;7.746;2023-06-04T04:39:31;10.20;99.90
77305;DHT22;66364;52.622;7.746;2023-06-04T04:41:32;10.40;99.90
77305;DHT22;66364;52.622;7.746;2023-06-04T04:43:34;10.00;99.90
77305;DHT22;66364;52.622;7.746;2023-06-04T04:45:35;10.50;99.90
77305;DHT22;66364;52.622;7.746;2023-06-04T04:47:37;10.40;99.90
77305;DHT22;66364;52.622;7.746;2023-06-04T04:49:38;10.40;99.90
77305;DHT22;66364;52.622;7.746;2023-06-04T04:51:41;10.50;99.90
77305;DHT22;66364;52.622;7.746;2023-06-04T04:53:41;10.80;99.90
77305;DHT22;66364;52.622;7.746;2023-06-04T04:55:42;10.60;99.90
77305;DHT22;66364;52.622;7.746;2023-06-04T04:57:43;10.70;99.90
77305;DHT22;66364;52.622;7.746;2023-06-04T04:59:44;10.60;99.90
77305;DHT22;66364;52.622;7.746;2023-06-04T05:01:45;10.70;99.90
77305;DHT22;66364;52.622;7.746;2023-06-04T05:03:46;10.70;99.90
77305;DHT22;66364;52.622;7.746;2023-06-04T05:05:47;10.80;99.90
77305;DHT22;66364;52.622;7.746;2023-06-04T05:07:49;10.90;99.90
77305;DHT22;66364;52.622;7.746;2023-06-04T05:09:57;10.80;99.90
77305;DHT22;66364;52.622;7.746;2023-06-04T05:11:58;11.00;99.90
77305;DHT22;66364;52.622;7.746;2023-06-04T05:14:00;10.80;99.90
77305;DHT22;66364;52.622;7.746;2023-06-04T05:16:02;11.10;99.90
77305;DHT22;66364;52.622;7.746;2023-06-04T05:18:04;11.00;99.90
77305;DHT22;66364;52.622;7.746;2023-06-04T05:20:05;11.30;99.90
77305;DHT22;66364;52.622;7.746;2023-06-04T05:22:06;11.10;99.90
77305;DHT22;66364;52.622;7.746;2023-06-04T05:24:07;11.10;99.90
77305;DHT22;66364;52.622;7.746;2023-06-04T05:26:09;11.40;99.90
77305;DHT22;66364;52.622;7.746;2023-06-04T05:28:10;11.20;99.90
77305;DHT22;66364;52.622;7.746;2023-06-04T05:30:11;11.20;99.90
77305;DHT22;66364;52.622;7.746;2023-06-04T05:32:12;11.30;99.90
77305;DHT22;66364;52.622;7.746;2023-06-04T05:34:13;11.20;99.90
77305;DHT22;66364;52.622;7.746;2023-06-04T05:36:14;11.40;99.90
77305;DHT22;66364;52.622;7.746;2023-06-04T05:38:15;11.70;99.90
77305;DHT22;66364;52.622;7.746;2023-06-04T05:40:16;11.40;99.90
77305;DHT22;66364;52.622;7.746;2023-06-04T05:42:17;11.60;99.90
77305;DHT22;66364;52.622;7.746;2023-06-04T05:44:19;11.60;99.90
77305;DHT22;66364;52.622;7.746;2023-06-04T05:46:20;11.70;99.90
77305;DHT22;66364;52.622;7.746;2023-06-04T05:48:22;11.70;99.90
77305;DHT22;66364;52.622;7.746;2023-06-04T05:50:23;11.70;99.90
77305;DHT22;66364;52.622;7.746;2023-06-04T05:52:24;12.10;99.90
77305;DHT22;66364;52.622;7.746;2023-06-04T05:54:26;11.90;99.90
77305;DHT22;66364;52.622;7.746;2023-06-04T05:56:28;11.90;99.90
77305;DHT22;66364;52.622;7.746;2023-06-04T05:58:29;11.90;99.90
77305;DHT22;66364;52.622;7.746;2023-06-04T06:00:30;12.20;99.90
77305;DHT22;66364;52.622;7.746;2023-06-04T06:02:30;12.10;99.90
77305;DHT22;66364;52.622;7.746;2023-06-04T06:04:31;12.10;99.90
77305;DHT22;66364;52.622;7.746;2023-06-04T06:06:32;12.10;99.90
77305;DHT22;66364;52.622;7.746;2023-06-04T06:08:33;12.10;99.90
77305;DHT22;66364;52.622;7.746;2023-06-04T06:10:34;12.40;99.90
77305;DHT22;66364;52.622;7.746;2023-06-04T06:12:35;12.50;99.90
77305;DHT22;66364;52.622;7.746;2023-06-04T06:14:36;12.60;99.90
77305;DHT22;66364;52.622;7.746;2023-06-04T06:16:37;12.60;99.90
77305;DHT22;66364;52.622;7.746;2023-06-04T06:18:38;12.50;99.90
77305;DHT22;66364;52.622;7.746;2023-06-04T06:20:40;12.80;99.90
77305;DHT22;66364;52.622;7.746;2023-06-04T06:22:41;13.00;99.90
77305;DHT22;66364;52.622;7.746;2023-06-04T06:24:42;12.90;99.90
77305;DHT22;66364;52.622;7.746;2023-06-04T06:26:43;13.10;99.90
77305;DHT22;66364;52.622;7.746;2023-06-04T06:28:44;13.20;99.90
77305;DHT22;66364;52.622;7.746;2023-06-04T06:30:45;13.10;99.90
77305;DHT22;66364;52.622;7.746;2023-06-04T06:32:46;13.20;99.90
77305;DHT22;66364;52.622;7.746;2023-06-04T06:34:47;13.50;99.90
77305;DHT22;66364;52.622;7.746;2023-06-04T06:36:48;13.60;99.90
77305;DHT22;66364;52.622;7.746;2023-06-04T06:38:49;13.60;99.90
77305;DHT22;66364;52.622;7.746;2023-06-04T06:40:50;13.70;99.90
77305;DHT22;66364;52.622;7.746;2023-06-04T06:42:52;14.00;99.90
77305;DHT22;66364;52.622;7.746;2023-06-04T06:44:53;14.10;99.90
77305;DHT22;66364;52.622;7.746;2023-06-04T06:46:54;14.00;99.90
77305;DHT22;66364;52.622;7.746;2023-06-04T06:48:54;14.30;99.90
77305;DHT22;66364;52.622;7.746;2023-06-04T06:50:55;14.30;99.90
77305;DHT22;66364;52.622;7.746;2023-06-04T06:52:56;14.30;99.90
77305;DHT22;66364;52.622;7.746;2023-06-04T06:54:57;14.70;99.90
77305;DHT22;66364;52.622;7.746;2023-06-04T06:56:59;14.50;99.90
77305;DHT22;66364;52.622;7.746;2023-06-04T06:59:01;14.50;99.90
77305;DHT22;66364;52.622;7.746;2023-06-04T07:01:02;14.60;99.90
77305;DHT22;66364;52.622;7.746;2023-06-04T07:03:04;14.70;99.90
77305;DHT22;66364;52.622;7.746;2023-06-04T07:05:04;14.80;99.90
77305;DHT22;66364;52.622;7.746;2023-06-04T07:07:05;15.00;99.90
77305;DHT22;66364;52.622;7.746;2023-06-04T07:09:07;15.10;99.90
77305;DHT22;66364;52.622;7.746;2023-06-04T07:11:08;15.30;99.90
77305;DHT22;66364;52.622;7.746;2023-06-04T07:13:09;15.20;99.90
77305;DHT22;66364;52.622;7.746;2023-06-04T07:15:10;15.40;99.90
77305;DHT22;66364;52.622;7.746;2023-06-04T07:17:11;15.50;99.90
77305;DHT22;66364;52.622;7.746;2023-06-04T07:19:12;15.70;99.90
77305;DHT22;66364;52.622;7.746;2023-06-04T07:21:13;16.10;99.90
77305;DHT22;66364;52.622;7.746;2023-06-04T07:23:14;15.80;99.90
77305;DHT22;66364;52.622;7.746;2023-06-04T07:25:15;16.00;96.90
77305;DHT22;66364;52.622;7.746;2023-06-04T07:27:15;16.10;97.70
77305;DHT22;66364;52.622;7.746;2023-06-04T07:29:16;16.20;96.30
77305;DHT22;66364;52.622;7.746;2023-06-04T07:31:17;16.40;94.50
77305;DHT22;66364;52.622;7.746;2023-06-04T07:33:21;16.40;93.70
77305;DHT22;66364;52.622;7.746;2023-06-04T07:35:23;16.60;90.30
77305;DHT22;66364;52.622;7.746;2023-06-04T07:37:24;16.70;89.40
77305;DHT22;66364;52.622;7.746;2023-06-04T07:39:25;16.80;87.60
77305;DHT22;66364;52.622;7.746;2023-06-04T07:41:26;16.80;85.80
77305;DHT22;66364;52.622;7.746;2023-06-04T07:43:32;17.00;85.10
77305;DHT22;66364;52.622;7.746;2023-06-04T07:45:33;17.30;82.70
77305;DHT22;66364;52.622;7.746;2023-06-04T07:47:35;17.20;83.70
77305;DHT22;66364;52.622;7.746;2023-06-04T07:49:36;17.40;78.60
77305;DHT22;66364;52.622;7.746;2023-06-04T07:51:38;17.50;78.60
77305;DHT22;66364;52.622;7.746;2023-06-04T07:53:39;17.70;75.50
77305;DHT22;66364;52.622;7.746;2023-06-04T07:55:41;17.80;76.90
77305;DHT22;66364;52.622;7.746;2023-06-04T07:57:42;18.10;74.10
77305;DHT22;66364;52.622;7.746;2023-06-04T07:59:43;18.10;73.80
77305;DHT22;66364;52.622;7.746;2023-06-04T08:01:44;18.20;68.30
77305;DHT22;66364;52.622;7.746;2023-06-04T08:03:45;18.30;66.80
77305;DHT22;66364;52.622;7.746;2023-06-04T08:05:46;18.20;66.00
77305;DHT22;66364;52.622;7.746;2023-06-04T08:07:47;18.10;70.20
77305;DHT22;66364;52.622;7.746;2023-06-04T08:09:54;18.40;70.30
77305;DHT22;66364;52.622;7.746;2023-06-04T08:11:55;18.60;67.00
77305;DHT22;66364;52.622;7.746;2023-06-04T08:13:56;18.70;66.50
77305;DHT22;66364;52.622;7.746;2023-06-04T08:15:56;18.80;65.50
77305;DHT22;66364;52.622;7.746;2023-06-04T08:17:59;18.90;61.80
77305;DHT22;66364;52.622;7.746;2023-06-04T08:20:00;18.90;64.10
77305;DHT22;66364;52.622;7.746;2023-06-04T08:22:02;19.10;63.30
77305;DHT22;66364;52.622;7.746;2023-06-04T08:24:04;19.10;58.80
77305;DHT22;66364;52.622;7.746;2023-06-04T08:26:06;19.20;61.30
77305;DHT22;66364;52.622;7.746;2023-06-04T08:28:07;19.30;50.10
77305;DHT22;66364;52.622;7.746;2023-06-04T08:30:08;19.20;55.40
77305;DHT22;66364;52.622;7.746;2023-06-04T08:32:09;19.30;56.80
77305;DHT22;66364;52.622;7.746;2023-06-04T08:34:10;19.50;54.80
77305;DHT22;66364;52.622;7.746;2023-06-04T08:36:11;19.80;52.20
77305;DHT22;66364;52.622;7.746;2023-06-04T08:38:12;19.40;48.70
77305;DHT22;66364;52.622;7.746;2023-06-04T08:40:13;19.30;57.20
77305;DHT22;66364;52.622;7.746;2023-06-04T08:42:27;19.60;56.30
77305;DHT22;66364;52.622;7.746;2023-06-04T08:44:27;20.30;52.10
77305;DHT22;66364;52.622;7.746;2023-06-04T08:46:34;20.40;45.80
77305;DHT22;66364;52.622;7.746;2023-06-04T08:48:37;20.50;44.60
77305;DHT22;66364;52.622;7.746;2023-06-04T08:50:42;20.40;40.80
77305;DHT22;66364;52.622;7.746;2023-06-04T08:52:43;20.40;40.70
77305;DHT22;66364;52.622;7.746;2023-06-04T08:54:44;20.30;44.80
77305;DHT22;66364;52.622;7.746;2023-06-04T08:56:49;20.50;46.00
77305;DHT22;66364;52.622;7.746;2023-06-04T08:58:51;20.70;42.00
77305;DHT22;66364;52.622;7.746;2023-06-04T09:00:52;20.70;44.10
77305;DHT22;66364;52.622;7.746;2023-06-04T09:02:53;20.70;43.60
77305;DHT22;66364;52.622;7.746;2023-06-04T09:04:55;20.80;41.60
77305;DHT22;66364;52.622;7.746;2023-06-04T09:07:02;20.80;42.10
77305;DHT22;66364;52.622;7.746;2023-06-04T09:09:05;20.90;38.50
77305;DHT22;66364;52.622;7.746;2023-06-04T09:11:10;21.10;42.10
77305;DHT22;66364;52.622;7.746;2023-06-04T09:13:13;21.30;38.20
77305;DHT22;66364;52.622;7.746;2023-06-04T09:15:15;21.30;36.70
77305;DHT22;66364;52.622;7.746;2023-06-04T09:17:23;21.50;38.00
77305;DHT22;66364;52.622;7.746;2023-06-04T09:19:25;21.60;40.10
77305;DHT22;66364;52.622;7.746;2023-06-04T09:21:26;21.70;33.60
77305;DHT22;66364;52.622;7.746;2023-06-04T09:23:26;21.40;33.90
77305;DHT22;66364;52.622;7.746;2023-06-04T09:25:28;21.50;36.90
77305;DHT22;66364;52.622;7.746;2023-06-04T09:27:54;21.60;36.10
77305;DHT22;66364;52.622;7.746;2023-06-04T09:29:56;21.90;34.60
77305;DHT22;66364;52.622;7.746;2023-06-04T09:31:58;22.20;34.30
77305;DHT22;66364;52.622;7.746;2023-06-04T09:34:00;22.30;31.60
77305;DHT22;66364;52.622;7.746;2023-06-04T09:36:01;22.60;31.30
77305;DHT22;66364;52.622;7.746;2023-06-04T09:38:04;22.90;30.70
77305;DHT22;66364;52.622;7.746;2023-06-04T09:40:06;23.00;27.70
77305;DHT22;66364;52.622;7.746;2023-06-04T09:42:08;23.10;26.90
77305;DHT22;66364;52.622;7.746;2023-06-04T09:44:10;23.00;26.50
77305;DHT22;66364;52.622;7.746;2023-06-04T09:46:19;23.10;22.60
77305;DHT22;66364;52.622;7.746;2023-06-04T09:48:21;23.20;22.30
77305;DHT22;66364;52.622;7.746;2023-06-04T09:50:32;23.50;19.40
77305;DHT22;66364;52.622;7.746;2023-06-04T09:52:34;23.60;19.90
77305;DHT22;66364;52.622;7.746;2023-06-04T09:54:39;23.80;20.30
77305;DHT22;66364;52.622;7.746;2023-06-04T09:56:42;24.20;18.90
77305;DHT22;66364;52.622;7.746;2023-06-04T09:58:43;24.20;14.30
77305;DHT22;66364;52.622;7.746;2023-06-04T10:00:46;24.10;16.70
77305;DHT22;66364;52.622;7.746;2023-06-04T10:02:48;23.60;14.90
77305;DHT22;66364;52.622;7.746;2023-06-04T10:04:53;23.80;18.80
77305;DHT22;66364;52.622;7.746;2023-06-04T10:06:53;24.20;16.50
77305;DHT22;66364;52.622;7.746;2023-06-04T10:08:56;24.30;15.10
77305;DHT22;66364;52.622;7.746;2023-06-04T10:11:00;24.20;14.70
77305;DHT22;66364;52.622;7.746;2023-06-04T10:13:09;24.10;15.10
77305;DHT22;66364;52.622;7.746;2023-06-04T10:15:13;24.40;12.90
77305;DHT22;66364;52.622;7.746;2023-06-04T10:17:15;24.70;13.20
77305;DHT22;66364;52.622;7.746;2023-06-04T10:19:18;25.20;13.80
77305;DHT22;66364;52.622;7.746;2023-06-04T10:21:19;25.40;13.90
77305;DHT22;66364;52.622;7.746;2023-06-04T10:23:21;25.60;15.90
77305;DHT22;66364;52.622;7.746;2023-06-04T10:25:23;25.70;11.60
77305;DHT22;66364;52.622;7.746;2023-06-04T10:27:25;25.70;13.30
77305;DHT22;66364;52.622;7.746;2023-06-04T10:29:26;25.80;13.20
77305;DHT22;66364;52.622;7.746;2023-06-04T10:31:32;25.80;11.70
77305;DHT22;66364;52.622;7.746;2023-06-04T10:33:33;25.60;13.60
77305;DHT22;66364;52.622;7.746;2023-06-04T10:35:35;25.60;14.10
77305;DHT22;66364;52.622;7.746;2023-06-04T10:37:37;25.40;15.10
77305;DHT22;66364;52.622;7.746;2023-06-04T10:39:39;25.30;13.80
77305;DHT22;66364;52.622;7.746;2023-06-04T10:41:40;25.00;13.80
77305;DHT22;66364;52.622;7.746;2023-06-04T10:43:41;25.00;16.00
77305;DHT22;66364;52.622;7.746;2023-06-04T10:45:43;24.90;16.10
77305;DHT22;66364;52.622;7.746;2023-06-04T10:47:45;24.90;14.50
77305;DHT22;66364;52.622;7.746;2023-06-04T10:49:46;24.60;13.00
77305;DHT22;66364;52.622;7.746;2023-06-04T10:51:47;23.90;14.40
77305;DHT22;66364;52.622;7.746;2023-06-04T10:53:50;23.40;15.10
77305;DHT22;66364;52.622;7.746;2023-06-04T10:55:51;22.90;16.10
77305;DHT22;66364;52.622;7.746;2023-06-04T11:00:15;23.10;17.90
77305;DHT22;66364;52.622;7.746;2023-06-04T11:02:16;23.50;19.20
77305;DHT22;66364;52.622;7.746;2023-06-04T11:04:25;24.10;18.20
77305;DHT22;66364;52.622;7.746;2023-06-04T11:06:26;24.40;17.00
77305;DHT22;66364;52.622;7.746;2023-06-04T11:08:29;24.60;15.80
77305;DHT22;66364;52.622;7.746;2023-06-04T11:10:38;24.60;15.20
77305;DHT22;66364;52.622;7.746;2023-06-04T11:12:47;23.80;14.30
77305;DHT22;66364;52.622;7.746;2023-06-04T11:14:59;23.40;16.90
77305;DHT22;66364;52.622;7.746;2023-06-04T11:17:11;23.50;18.00
77305;DHT22;66364;52.622;7.746;2023-06-04T11:19:12;24.00;16.20
77305;DHT22;66364;52.622;7.746;2023-06-04T11:21:13;24.40;17.70
77305;DHT22;66364;52.622;7.746;2023-06-04T11:23:15;24.70;15.40
77305;DHT22;66364;52.622;7.746;2023-06-04T11:25:17;24.90;13.90
77305;DHT22;66364;52.622;7.746;2023-06-04T11:27:18;24.60;13.40
77305;DHT22;66364;52.622;7.746;2023-06-04T11:29:20;24.10;13.60
77305;DHT22;66364;52.622;7.746;2023-06-04T11:31:28;24.00;14.50
77305;DHT22;66364;52.622;7.746;2023-06-04T11:33:30;24.10;16.00
77305;DHT22;66364;52.622;7.746;2023-06-04T11:35:32;24.40;16.40
77305;DHT22;66364;52.622;7.746;2023-06-04T11:37:34;24.70;15.60
77305;DHT22;66364;52.622;7.746;2023-06-04T11:39:35;24.90;15.10
77305;DHT22;66364;52.622;7.746;2023-06-04T11:41:38;24.90;14.30
77305;DHT22;66364;52.622;7.746;2023-06-04T11:43:39;25.00;15.40
77305;DHT22;66364;52.622;7.746;2023-06-04T11:45:40;25.30;15.30
77305;DHT22;66364;52.622;7.746;2023-06-04T11:47:50;25.50;15.20
77305;DHT22;66364;52.622;7.746;2023-06-04T11:49:54;25.70;14.30
77305;DHT22;66364;52.622;7.746;2023-06-04T11:51:56;25.80;13.70
77305;DHT22;66364;52.622;7.746;2023-06-04T11:53:57;25.60;12.50
77305;DHT22;66364;52.622;7.746;2023-06-04T11:55:58;25.40;13.00
77305;DHT22;66364;52.622;7.746;2023-06-04T11:58:00;25.30;12.90
77305;DHT22;66364;52.622;7.746;2023-06-04T12:00:01;25.20;12.10
77305;DHT22;66364;52.622;7.746;2023-06-04T12:02:03;24.90;12.10
77305;DHT22;66364;52.622;7.746;2023-06-04T12:04:12;24.80;13.90
77305;DHT22;66364;52.622;7.746;2023-06-04T12:06:15;24.90;14.20
77305;DHT22;66364;52.622;7.746;2023-06-04T12:08:16;24.40;13.80
77305;DHT22;66364;52.622;7.746;2023-06-04T12:10:19;24.50;13.60
77305;DHT22;66364;52.622;7.746;2023-06-04T12:12:23;24.20;15.50
77305;DHT22;66364;52.622;7.746;2023-06-04T12:14:24;24.50;15.60
77305;DHT22;66364;52.622;7.746;2023-06-04T12:16:25;24.90;15.10
77305;DHT22;66364;52.622;7.746;2023-06-04T12:18:26;25.20;14.40
77305;DHT22;66364;52.622;7.746;2023-06-04T12:20:33;25.40;14.80
77305;DHT22;66364;52.622;7.746;2023-06-04T12:22:44;25.50;15.30
77305;DHT22;66364;52.622;7.746;2023-06-04T12:24:48;25.40;13.10
77305;DHT22;66364;52.622;7.746;2023-06-04T12:26:49;25.30;13.10
77305;DHT22;66364;52.622;7.746;2023-06-04T12:29:01;25.20;13.70
77305;DHT22;66364;52.622;7.746;2023-06-04T12:31:02;25.20;16.20
77305;DHT22;66364;52.622;7.746;2023-06-04T12:33:03;25.30;14.70
77305;DHT22;66364;52.622;7.746;2023-06-04T12:35:05;25.30;13.80
77305;DHT22;66364;52.622;7.746;2023-06-04T12:37:07;25.30;13.80
77305;DHT22;66364;52.622;7.746;2023-06-04T12:39:08;25.60;15.30
77305;DHT22;66364;52.622;7.746;2023-06-04T12:41:09;25.50;14.50
77305;DHT22;66364;52.622;7.746;2023-06-04T12:43:11;25.70;14.60
77305;DHT22;66364;52.622;7.746;2023-06-04T12:45:13;25.70;14.10
77305;DHT22;66364;52.622;7.746;2023-06-04T12:47:15;25.80;13.10
77305;DHT22;66364;52.622;7.746;2023-06-04T12:49:16;25.60;13.90
77305;DHT22;66364;52.622;7.746;2023-06-04T12:51:17;25.50;14.70
77305;DHT22;66364;52.622;7.746;2023-06-04T12:53:18;25.70;13.30
77305;DHT22;66364;52.622;7.746;2023-06-04T12:55:20;25.60;11.20
77305;DHT22;66364;52.622;7.746;2023-06-04T12:57:23;25.10;13.30
77305;DHT22;66364;52.622;7.746;2023-06-04T12:59:25;25.10;14.70
77305;DHT22;66364;52.622;7.746;2023-06-04T13:01:26;24.90;12.80